sensor_id;sensor_type;location;lat;lon;timestamp;pressure;altitude;pressure_sealevel;temperature;humidity
43488;BME280;29078;41.932;25.554;2023-01-05T00:01:28;100469.25;;;9.05;73.49
43488;BME280;29078;41.932;25.554;2023-01-05T00:03:53;100462.81;;;8.80;73.10
43488;BME280;29078;41.932;25.554;2023-01-05T00:06:19;100490.56;;;9.11;73.52
43488;BME280;29078;41.932;25.554;2023-01-05T00:08:45;100510.81;;;9.11;73.02
43488;BME280;29078;41.932;25.554;2023-01-05T00:11:13;100492.66;;;9.08;73.15
43488;BME280;29078;41.932;25.554;2023-01-05T00:13:58;100493.78;;;9.05;73.57
43488;BME280;29078;41.932;25.554;2023-01-05T00:16:42;100487.97;;;9.02;73.65
43488;BME280;29078;41.932;25.554;2023-01-05T00:19:27;100339.69;;;8.08;73.45
43488;BME280;29078;41.932;25.554;2023-01-05T00:22:16;100446.84;;;8.81;73.54
43488;BME280;29078;41.932;25.554;2023-01-05T00:25:13;100452.28;;;8.80;73.72
43488;BME280;29078;41.932;25.554;2023-01-05T00:27:43;100479.38;;;9.00;73.54
43488;BME280;29078;41.932;25.554;2023-01-05T00:30:11;100486.47;;;8.99;73.37
43488;BME280;29078;41.932;25.554;2023-01-05T00:32:37;100470.66;;;8.99;73.69
43488;BME280;29078;41.932;25.554;2023-01-05T00:35:03;100362.94;;;8.22;73.76
43488;BME280;29078;41.932;25.554;2023-01-05T00:37:31;100476.22;;;8.96;73.78
43488;BME280;29078;41.932;25.554;2023-01-05T00:39:57;100452.13;;;8.81;73.72
43488;BME280;29078;41.932;25.554;2023-01-05T00:42:22;100308.88;;;7.90;73.49
43488;BME280;29078;41.932;25.554;2023-01-05T00:44:48;100430.28;;;8.71;73.59
43488;BME280;29078;41.932;25.554;2023-01-05T00:47:13;100291.31;;;7.81;73.55
43488;BME280;29078;41.932;25.554;2023-01-05T00:49:39;100435.94;;;8.76;73.61
43488;BME280;29078;41.932;25.554;2023-01-05T00:52:05;100436.47;;;8.80;73.54
43488;BME280;29078;41.932;25.554;2023-01-05T00:54:31;100428.91;;;8.67;73.55
43488;BME280;29078;41.932;25.554;2023-01-05T00:56:56;100328.22;;;7.99;73.89
43488;BME280;29078;41.932;25.554;2023-01-05T00:59:22;100418.22;;;8.69;73.42
43488;BME280;29078;41.932;25.554;2023-01-05T01:01:49;100373.03;;;8.36;73.62
43488;BME280;29078;41.932;25.554;2023-01-05T01:04:15;100447.94;;;8.88;73.61
43488;BME280;29078;41.932;25.554;2023-01-05T01:06:41;100448.09;;;8.87;73.68
43488;BME280;29078;41.932;25.554;2023-01-05T01:09:07;100417.00;;;8.63;73.71
43488;BME280;29078;41.932;25.554;2023-01-05T01:11:33;100425.41;;;8.76;73.67
43488;BME280;29078;41.932;25.554;2023-01-05T01:13:58;100435.50;;;8.81;73.84
43488;BME280;29078;41.932;25.554;2023-01-05T01:16:24;100291.72;;;7.96;73.36
43488;BME280;29078;41.932;25.554;2023-01-05T01:18:49;100398.72;;;8.62;73.61
43488;BME280;29078;41.932;25.554;2023-01-05T01:21:15;100413.75;;;8.79;73.52
43488;BME280;29078;41.932;25.554;2023-01-05T01:23:42;100422.78;;;8.76;73.84
43488;BME280;29078;41.932;25.554;2023-01-05T01:26:10;100352.81;;;8.37;73.72
43488;BME280;29078;41.932;25.554;2023-01-05T01:28:35;100266.44;;;7.76;73.42
43488;BME280;29078;41.932;25.554;2023-01-05T01:31:01;100396.41;;;8.49;73.47
43488;BME280;29078;41.932;25.554;2023-01-05T01:33:27;100411.16;;;8.69;73.65
43488;BME280;29078;41.932;25.554;2023-01-05T01:35:54;100391.94;;;8.59;73.74
43488;BME280;29078;41.932;25.554;2023-01-05T01:38:19;100380.06;;;8.45;73.54
43488;BME280;29078;41.932;25.554;2023-01-05T01:40:46;100404.22;;;8.68;73.62
43488;BME280;29078;41.932;25.554;2023-01-05T01:43:13;100398.28;;;8.66;73.66
43488;BME280;29078;41.932;25.554;2023-01-05T01:45:39;100374.91;;;8.53;73.50
43488;BME280;29078;41.932;25.554;2023-01-05T01:48:05;100414.22;;;8.65;73.58
43488;BME280;29078;41.932;25.554;2023-01-05T01:50:38;100234.25;;;7.54;73.45
43488;BME280;29078;41.932;25.554;2023-01-05T01:53:27;100395.69;;;8.56;73.22
43488;BME280;29078;41.932;25.554;2023-01-05T01:55:54;100371.09;;;8.38;73.47
43488;BME280;29078;41.932;25.554;2023-01-05T01:58:24;100394.84;;;8.56;73.47
43488;BME280;29078;41.932;25.554;2023-01-05T02:00:50;100383.94;;;8.51;73.40
43488;BME280;29078;41.932;25.554;2023-01-05T02:03:15;100383.09;;;8.50;73.34
43488;BME280;29078;41.932;25.554;2023-01-05T02:05:41;100275.56;;;7.81;73.42
43488;BME280;29078;41.932;25.554;2023-01-05T02:08:11;100259.53;;;7.65;73.09
43488;BME280;29078;41.932;25.554;2023-01-05T02:18:26;100372.75;;;8.29;73.31
43488;BME280;29078;41.932;25.554;2023-01-05T02:21:34;100359.19;;;8.24;72.86
43488;BME280;29078;41.932;25.554;2023-01-05T02:26:50;100356.31;;;8.18;73.01
43488;BME280;29078;41.932;25.554;2023-01-05T02:32:39;100351.19;;;8.07;72.87
43488;BME280;29078;41.932;25.554;2023-01-05T02:40:30;100285.81;;;7.65;73.09
43488;BME280;29078;41.932;25.554;2023-01-05T02:42:57;100344.13;;;8.07;72.95
43488;BME280;29078;41.932;25.554;2023-01-05T02:45:24;100342.34;;;8.08;72.88
43488;BME280;29078;41.932;25.554;2023-01-05T02:47:50;100293.81;;;7.83;73.13
43488;BME280;29078;41.932;25.554;2023-01-05T02:50:23;100309.72;;;7.91;72.96
43488;BME280;29078;41.932;25.554;2023-01-05T02:58:15;100211.03;;;7.30;72.78
43488;BME280;29078;41.932;25.554;2023-01-05T03:00:53;100134.97;;;6.82;72.69
43488;BME280;29078;41.932;25.554;2023-01-05T03:03:21;100305.13;;;7.93;72.86
43488;BME280;29078;41.932;25.554;2023-01-05T03:05:54;100321.59;;;7.95;72.62
43488;BME280;29078;41.932;25.554;2023-01-05T03:08:22;100320.78;;;7.94;73.17
43488;BME280;29078;41.932;25.554;2023-01-05T03:11:04;100287.31;;;7.77;72.53
43488;BME280;29078;41.932;25.554;2023-01-05T03:14:15;100314.69;;;7.94;72.75
43488;BME280;29078;41.932;25.554;2023-01-05T03:16:44;100297.97;;;7.85;72.65
43488;BME280;29078;41.932;25.554;2023-01-05T03:19:12;100312.06;;;7.94;72.69
43488;BME280;29078;41.932;25.554;2023-01-05T03:22:03;100316.47;;;7.93;72.84
43488;BME280;29078;41.932;25.554;2023-01-05T03:24:48;100201.00;;;6.97;72.60
43488;BME280;29078;41.932;25.554;2023-01-05T03:27:33;100302.53;;;7.83;72.63
43488;BME280;29078;41.932;25.554;2023-01-05T03:30:17;100310.53;;;7.91;72.38
43488;BME280;29078;41.932;25.554;2023-01-05T03:33:24;100272.53;;;7.67;72.62
43488;BME280;29078;41.932;25.554;2023-01-05T03:36:12;100288.44;;;7.75;72.94
43488;BME280;29078;41.932;25.554;2023-01-05T03:38:42;100314.44;;;7.87;73.02
43488;BME280;29078;41.932;25.554;2023-01-05T03:41:11;100241.88;;;7.38;72.67
43488;BME280;29078;41.932;25.554;2023-01-05T03:43:40;100233.69;;;7.41;72.41
43488;BME280;29078;41.932;25.554;2023-01-05T03:46:13;100301.28;;;7.87;72.77
43488;BME280;29078;41.932;25.554;2023-01-05T03:48:40;100271.56;;;7.68;72.75
43488;BME280;29078;41.932;25.554;2023-01-05T03:51:06;100288.41;;;7.84;73.12
43488;BME280;29078;41.932;25.554;2023-01-05T03:53:32;100295.56;;;8.02;72.47
43488;BME280;29078;41.932;25.554;2023-01-05T03:55:57;100202.31;;;7.49;72.35
43488;BME280;29078;41.932;25.554;2023-01-05T03:58:23;100142.75;;;7.30;71.70
43488;BME280;29078;41.932;25.554;2023-01-05T04:00:48;100282.91;;;8.15;71.50
43488;BME280;29078;41.932;25.554;2023-01-05T04:03:13;100255.47;;;7.90;72.09
43488;BME280;29078;41.932;25.554;2023-01-05T04:05:39;100282.28;;;8.03;72.20
43488;BME280;29078;41.932;25.554;2023-01-05T04:08:05;100175.66;;;7.34;71.83
43488;BME280;29078;41.932;25.554;2023-01-05T04:10:30;100261.16;;;7.85;72.27
43488;BME280;29078;41.932;25.554;2023-01-05T04:12:55;100261.28;;;7.84;71.64
43488;BME280;29078;41.932;25.554;2023-01-05T04:15:21;100262.13;;;7.84;72.03
43488;BME280;29078;41.932;25.554;2023-01-05T04:17:47;100216.44;;;7.48;72.11
43488;BME280;29078;41.932;25.554;2023-01-05T04:20:12;100197.88;;;7.40;71.76
43488;BME280;29078;41.932;25.554;2023-01-05T04:22:38;100131.50;;;6.91;72.07
43488;BME280;29078;41.932;25.554;2023-01-05T04:25:03;100143.09;;;6.98;71.74
43488;BME280;29078;41.932;25.554;2023-01-05T04:27:29;100214.34;;;7.42;71.95
43488;BME280;29078;41.932;25.554;2023-01-05T04:29:54;100273.22;;;7.78;72.17
43488;BME280;29078;41.932;25.554;2023-01-05T04:32:20;100260.63;;;7.72;71.84
43488;BME280;29078;41.932;25.554;2023-01-05T04:34:45;100265.50;;;7.67;71.96
43488;BME280;29078;41.932;25.554;2023-01-05T04:37:10;100274.06;;;7.69;71.91
43488;BME280;29078;41.932;25.554;2023-01-05T04:39:36;100267.97;;;7.69;72.10
43488;BME280;29078;41.932;25.554;2023-01-05T04:42:01;100282.91;;;7.68;72.23
43488;BME280;29078;41.932;25.554;2023-01-05T04:44:27;100116.47;;;6.74;71.91
43488;BME280;29078;41.932;25.554;2023-01-05T04:46:52;100238.44;;;7.47;72.28
43488;BME280;29078;41.932;25.554;2023-01-05T04:49:17;100260.53;;;7.64;71.73
43488;BME280;29078;41.932;25.554;2023-01-05T04:51:43;100131.38;;;6.74;71.76
43488;BME280;29078;41.932;25.554;2023-01-05T04:54:08;100258.31;;;7.59;72.14
43488;BME280;29078;41.932;25.554;2023-01-05T04:56:34;100187.16;;;7.14;71.97
43488;BME280;29078;41.932;25.554;2023-01-05T04:58:59;100214.63;;;7.29;71.96
43488;BME280;29078;41.932;25.554;2023-01-05T05:01:25;100190.47;;;7.16;72.28
43488;BME280;29078;41.932;25.554;2023-01-05T05:03:50;100258.47;;;7.58;71.66
43488;BME280;29078;41.932;25.554;2023-01-05T05:06:16;100163.00;;;6.91;71.67
43488;BME280;29078;41.932;25.554;2023-01-05T05:08:41;100257.50;;;7.49;72.06
43488;BME280;29078;41.932;25.554;2023-01-05T05:11:07;100272.72;;;7.46;72.32
43488;BME280;29078;41.932;25.554;2023-01-05T05:13:32;100264.53;;;7.39;72.08
43488;BME280;29078;41.932;25.554;2023-01-05T05:15:58;100147.50;;;6.50;72.10
43488;BME280;29078;41.932;25.554;2023-01-05T05:18:23;100223.91;;;7.14;72.69
43488;BME280;29078;41.932;25.554;2023-01-05T05:20:50;100103.03;;;6.38;72.12
43488;BME280;29078;41.932;25.554;2023-01-05T05:23:17;100277.13;;;7.26;72.21
43488;BME280;29078;41.932;25.554;2023-01-05T05:25:42;100120.72;;;6.46;72.24
43488;BME280;29078;41.932;25.554;2023-01-05T05:28:08;100262.88;;;7.38;71.65
43488;BME280;29078;41.932;25.554;2023-01-05T05:30:33;100242.56;;;7.21;71.45
43488;BME280;29078;41.932;25.554;2023-01-05T05:32:59;100252.81;;;7.24;72.30
43488;BME280;29078;41.932;25.554;2023-01-05T05:35:24;100253.63;;;7.24;72.16
43488;BME280;29078;41.932;25.554;2023-01-05T05:37:50;100252.13;;;7.12;72.06
43488;BME280;29078;41.932;25.554;2023-01-05T05:40:15;100121.94;;;6.32;72.13
43488;BME280;29078;41.932;25.554;2023-01-05T05:42:40;100151.22;;;6.47;71.84
43488;BME280;29078;41.932;25.554;2023-01-05T05:45:06;100120.56;;;6.28;71.57
43488;BME280;29078;41.932;25.554;2023-01-05T05:47:32;100275.75;;;7.22;72.30
43488;BME280;29078;41.932;25.554;2023-01-05T05:49:57;100276.16;;;7.17;71.90
43488;BME280;29078;41.932;25.554;2023-01-05T05:52:23;100271.19;;;7.14;72.13
43488;BME280;29078;41.932;25.554;2023-01-05T05:54:48;100258.59;;;6.98;72.23
43488;BME280;29078;41.932;25.554;2023-01-05T05:57:13;100159.50;;;6.33;71.96
43488;BME280;29078;41.932;25.554;2023-01-05T05:59:39;100273.81;;;7.05;71.79
43488;BME280;29078;41.932;25.554;2023-01-05T06:02:04;100137.66;;;6.13;71.85
43488;BME280;29078;41.932;25.554;2023-01-05T06:04:30;100274.22;;;7.00;71.95
43488;BME280;29078;41.932;25.554;2023-01-05T06:06:55;100268.00;;;7.01;71.57
43488;BME280;29078;41.932;25.554;2023-01-05T06:09:20;100174.56;;;6.41;71.64
43488;BME280;29078;41.932;25.554;2023-01-05T06:11:46;100147.72;;;6.08;71.70
43488;BME280;29078;41.932;25.554;2023-01-05T06:14:11;100282.22;;;6.98;71.46
43488;BME280;29078;41.932;25.554;2023-01-05T06:16:37;100255.41;;;6.85;71.78
43488;BME280;29078;41.932;25.554;2023-01-05T06:19:02;100073.81;;;5.84;71.52
43488;BME280;29078;41.932;25.554;2023-01-05T06:21:28;100252.81;;;6.95;71.63
43488;BME280;29078;41.932;25.554;2023-01-05T06:23:54;100083.88;;;5.88;71.42
43488;BME280;29078;41.932;25.554;2023-01-05T06:26:19;100211.75;;;6.75;71.24
43488;BME280;29078;41.932;25.554;2023-01-05T06:28:44;100207.03;;;6.68;71.46
43488;BME280;29078;41.932;25.554;2023-01-05T06:31:10;100230.16;;;6.94;71.05
43488;BME280;29078;41.932;25.554;2023-01-05T06:33:35;100216.31;;;6.82;70.82
43488;BME280;29078;41.932;25.554;2023-01-05T06:36:01;100220.59;;;6.83;70.72
43488;BME280;29078;41.932;25.554;2023-01-05T06:38:26;100103.28;;;6.07;70.86
43488;BME280;29078;41.932;25.554;2023-01-05T06:40:52;100226.81;;;6.92;71.06
43488;BME280;29078;41.932;25.554;2023-01-05T06:43:19;100044.16;;;5.83;70.74
43488;BME280;29078;41.932;25.554;2023-01-05T06:45:44;100239.53;;;6.96;70.83
43488;BME280;29078;41.932;25.554;2023-01-05T06:48:09;100239.53;;;6.96;70.88
43488;BME280;29078;41.932;25.554;2023-01-05T06:50:35;100233.88;;;6.91;70.49
43488;BME280;29078;41.932;25.554;2023-01-05T06:53:00;100238.97;;;6.93;70.82
43488;BME280;29078;41.932;25.554;2023-01-05T06:55:26;100091.00;;;5.97;70.68
43488;BME280;29078;41.932;25.554;2023-01-05T06:57:51;100242.84;;;6.89;70.68
43488;BME280;29078;41.932;25.554;2023-01-05T07:00:17;100135.19;;;6.31;70.83
43488;BME280;29078;41.932;25.554;2023-01-05T07:02:43;100140.31;;;6.32;70.76
43488;BME280;29078;41.932;25.554;2023-01-05T07:05:08;100233.19;;;6.89;70.54
43488;BME280;29078;41.932;25.554;2023-01-05T07:07:34;100196.53;;;6.59;70.73
43488;BME280;29078;41.932;25.554;2023-01-05T07:10:00;100212.59;;;6.75;70.53
43488;BME280;29078;41.932;25.554;2023-01-05T07:12:25;100233.03;;;6.91;69.78
43488;BME280;29078;41.932;25.554;2023-01-05T07:14:50;100233.59;;;6.94;69.91
43488;BME280;29078;41.932;25.554;2023-01-05T07:17:16;100238.44;;;6.99;69.69
43488;BME280;29078;41.932;25.554;2023-01-05T07:19:42;100268.84;;;7.01;70.13
43488;BME280;29078;41.932;25.554;2023-01-05T07:22:08;100210.81;;;6.95;69.81
43488;BME280;29078;41.932;25.554;2023-01-05T07:24:33;100015.69;;;5.59;69.40
43488;BME280;29078;41.932;25.554;2023-01-05T07:26:59;100232.22;;;7.10;69.72
43488;BME280;29078;41.932;25.554;2023-01-05T07:29:25;100200.56;;;7.01;69.95
43488;BME280;29078;41.932;25.554;2023-01-05T07:31:50;100196.97;;;7.03;69.43
43488;BME280;29078;41.932;25.554;2023-01-05T07:34:20;100223.50;;;7.19;69.51
43488;BME280;29078;41.932;25.554;2023-01-05T07:36:45;100055.84;;;6.29;70.02
43488;BME280;29078;41.932;25.554;2023-01-05T07:39:11;100225.56;;;7.25;69.93
43488;BME280;29078;41.932;25.554;2023-01-05T07:41:36;100212.00;;;7.29;69.84
43488;BME280;29078;41.932;25.554;2023-01-05T07:44:02;100200.81;;;7.27;69.32
43488;BME280;29078;41.932;25.554;2023-01-05T07:46:28;100091.16;;;6.63;69.34
43488;BME280;29078;41.932;25.554;2023-01-05T07:48:53;100174.00;;;7.24;69.26
43488;BME280;29078;41.932;25.554;2023-01-05T07:51:18;100201.09;;;7.44;69.68
43488;BME280;29078;41.932;25.554;2023-01-05T07:53:44;100198.31;;;7.45;69.87
43488;BME280;29078;41.932;25.554;2023-01-05T07:56:10;100139.63;;;7.08;70.15
43488;BME280;29078;41.932;25.554;2023-01-05T07:58:36;100034.84;;;6.58;69.73
43488;BME280;29078;41.932;25.554;2023-01-05T08:01:03;100174.94;;;7.52;69.53
43488;BME280;29078;41.932;25.554;2023-01-05T08:03:29;100181.38;;;7.67;69.86
43488;BME280;29078;41.932;25.554;2023-01-05T08:05:54;100134.00;;;7.40;69.49
43488;BME280;29078;41.932;25.554;2023-01-05T08:08:20;100176.09;;;7.77;69.82
43488;BME280;29078;41.932;25.554;2023-01-05T08:10:45;100157.00;;;7.75;69.27
43488;BME280;29078;41.932;25.554;2023-01-05T08:13:11;99948.16;;;6.40;69.39
43488;BME280;29078;41.932;25.554;2023-01-05T08:15:56;100026.06;;;6.96;69.26
43488;BME280;29078;41.932;25.554;2023-01-05T08:18:22;100163.44;;;7.90;69.56
43488;BME280;29078;41.932;25.554;2023-01-05T08:20:58;100081.34;;;7.41;69.64
43488;BME280;29078;41.932;25.554;2023-01-05T08:23:26;100172.34;;;8.07;69.21
43488;BME280;29078;41.932;25.554;2023-01-05T08:25:53;100138.50;;;7.94;69.47
43488;BME280;29078;41.932;25.554;2023-01-05T08:28:19;100115.44;;;7.88;69.72
43488;BME280;29078;41.932;25.554;2023-01-05T08:30:44;100016.13;;;7.27;69.86
43488;BME280;29078;41.932;25.554;2023-01-05T08:33:10;100136.91;;;8.11;70.08
43488;BME280;29078;41.932;25.554;2023-01-05T08:35:40;100082.06;;;7.71;70.08
43488;BME280;29078;41.932;25.554;2023-01-05T08:38:06;100157.00;;;8.39;70.15
43488;BME280;29078;41.932;25.554;2023-01-05T08:40:31;100078.44;;;7.99;70.33
43488;BME280;29078;41.932;25.554;2023-01-05T08:42:57;100155.78;;;8.51;70.88
43488;BME280;29078;41.932;25.554;2023-01-05T08:45:22;100000.34;;;7.64;70.20
43488;BME280;29078;41.932;25.554;2023-01-05T08:47:47;100084.94;;;8.22;70.36
43488;BME280;29078;41.932;25.554;2023-01-05T08:50:13;100140.44;;;8.65;70.06
43488;BME280;29078;41.932;25.554;2023-01-05T08:52:38;100078.06;;;8.39;70.22
43488;BME280;29078;41.932;25.554;2023-01-05T08:55:05;100107.50;;;8.60;70.38
43488;BME280;29078;41.932;25.554;2023-01-05T08:57:32;100121.13;;;8.74;70.22
43488;BME280;29078;41.932;25.554;2023-01-05T08:59:58;100119.16;;;8.76;70.61
43488;BME280;29078;41.932;25.554;2023-01-05T09:02:24;100064.97;;;8.47;70.51
43488;BME280;29078;41.932;25.554;2023-01-05T09:04:49;99994.88;;;8.11;70.65
43488;BME280;29078;41.932;25.554;2023-01-05T09:07:15;100084.41;;;8.72;70.43
43488;BME280;29078;41.932;25.554;2023-01-05T09:09:40;100089.94;;;8.87;70.55
43488;BME280;29078;41.932;25.554;2023-01-05T09:12:06;100098.09;;;8.94;70.83
43488;BME280;29078;41.932;25.554;2023-01-05T09:14:31;99997.16;;;8.41;70.65
43488;BME280;29078;41.932;25.554;2023-01-05T09:16:57;100025.97;;;8.69;70.53
43488;BME280;29078;41.932;25.554;2023-01-05T09:19:23;100078.09;;;9.09;70.60
43488;BME280;29078;41.932;25.554;2023-01-05T09:21:48;100076.31;;;9.09;70.87
43488;BME280;29078;41.932;25.554;2023-01-05T09:24:14;100035.56;;;8.96;70.92
43488;BME280;29078;41.932;25.554;2023-01-05T09:26:41;99951.16;;;8.27;70.97
43488;BME280;29078;41.932;25.554;2023-01-05T09:29:06;99915.66;;;8.32;70.94
43488;BME280;29078;41.932;25.554;2023-01-05T09:31:32;100045.09;;;9.22;71.00
43488;BME280;29078;41.932;25.554;2023-01-05T09:33:58;100055.00;;;9.29;71.18
43488;BME280;29078;41.932;25.554;2023-01-05T09:36:23;100055.34;;;9.34;71.04
43488;BME280;29078;41.932;25.554;2023-01-05T09:38:53;100030.34;;;9.38;70.79
43488;BME280;29078;41.932;25.554;2023-01-05T09:41:25;99896.63;;;8.64;71.15
43488;BME280;29078;41.932;25.554;2023-01-05T09:43:54;100017.22;;;9.54;71.12
43488;BME280;29078;41.932;25.554;2023-01-05T09:46:36;100007.69;;;9.61;71.23
43488;BME280;29078;41.932;25.554;2023-01-05T09:49:03;99964.16;;;9.49;70.78
43488;BME280;29078;41.932;25.554;2023-01-05T09:51:31;99856.75;;;8.84;70.74
43488;BME280;29078;41.932;25.554;2023-01-05T09:53:58;99994.91;;;9.82;70.63
43488;BME280;29078;41.932;25.554;2023-01-05T09:56:30;99965.91;;;9.74;70.68
43488;BME280;29078;41.932;25.554;2023-01-05T09:59:05;99974.31;;;9.94;70.13
43488;BME280;29078;41.932;25.554;2023-01-05T10:01:32;99974.66;;;9.99;70.05
43488;BME280;29078;41.932;25.554;2023-01-05T10:04:04;99850.97;;;9.23;69.64
43488;BME280;29078;41.932;25.554;2023-01-05T10:06:33;99961.31;;;10.17;69.30
43488;BME280;29078;41.932;25.554;2023-01-05T10:09:01;99957.22;;;10.23;69.38
43488;BME280;29078;41.932;25.554;2023-01-05T10:14:56;99944.69;;;10.33;69.30
43488;BME280;29078;41.932;25.554;2023-01-05T10:17:23;99883.31;;;10.06;69.36
43488;BME280;29078;41.932;25.554;2023-01-05T10:19:50;99946.00;;;10.53;68.58
43488;BME280;29078;41.932;25.554;2023-01-05T10:30:14;99918.34;;;10.88;67.79
43488;BME280;29078;41.932;25.554;2023-01-05T10:32:50;99906.44;;;10.92;67.30
43488;BME280;29078;41.932;25.554;2023-01-05T10:38:16;99886.06;;;11.01;67.00
43488;BME280;29078;41.932;25.554;2023-01-05T10:40:55;99813.44;;;10.66;66.54
43488;BME280;29078;41.932;25.554;2023-01-05T10:43:50;99863.06;;;11.09;66.17
43488;BME280;29078;41.932;25.554;2023-01-05T10:46:12;99858.09;;;11.14;65.96
43488;BME280;29078;41.932;25.554;2023-01-05T10:48:38;99834.00;;;11.09;65.92
43488;BME280;29078;41.932;25.554;2023-01-05T10:51:05;99851.44;;;11.27;66.49
43488;BME280;29078;41.932;25.554;2023-01-05T10:53:34;99734.44;;;10.56;66.32
43488;BME280;29078;41.932;25.554;2023-01-05T10:56:22;99700.88;;;10.42;65.70
43488;BME280;29078;41.932;25.554;2023-01-05T10:58:47;99844.41;;;11.19;65.92
43488;BME280;29078;41.932;25.554;2023-01-05T11:01:28;99842.00;;;11.32;65.38
43488;BME280;29078;41.932;25.554;2023-01-05T11:06:32;99790.25;;;11.07;65.75
43488;BME280;29078;41.932;25.554;2023-01-05T11:09:19;99500.22;;;9.26;64.95
43488;BME280;29078;41.932;25.554;2023-01-05T11:12:00;99701.13;;;10.55;65.27
43488;BME280;29078;41.932;25.554;2023-01-05T11:14:27;99812.28;;;11.30;65.34
43488;BME280;29078;41.932;25.554;2023-01-05T11:17:00;99831.38;;;11.40;64.73
43488;BME280;29078;41.932;25.554;2023-01-05T11:19:47;99795.06;;;11.34;64.63
43488;BME280;29078;41.932;25.554;2023-01-05T11:22:33;99800.81;;;11.38;65.35
43488;BME280;29078;41.932;25.554;2023-01-05T11:25:27;99806.22;;;11.44;64.37
43488;BME280;29078;41.932;25.554;2023-01-05T11:30:34;99674.25;;;10.74;64.54
43488;BME280;29078;41.932;25.554;2023-01-05T11:33:00;99670.25;;;10.78;64.53
43488;BME280;29078;41.932;25.554;2023-01-05T11:35:31;99795.22;;;11.56;64.18
43488;BME280;29078;41.932;25.554;2023-01-05T11:37:59;99789.22;;;11.62;64.10
43488;BME280;29078;41.932;25.554;2023-01-05T11:40:28;99803.53;;;11.67;64.11
43488;BME280;29078;41.932;25.554;2023-01-05T11:42:54;99735.19;;;11.41;64.26
43488;BME280;29078;41.932;25.554;2023-01-05T11:45:30;99784.44;;;11.80;63.76
43488;BME280;29078;41.932;25.554;2023-01-05T11:48:00;99656.31;;;11.07;63.62
43488;BME280;29078;41.932;25.554;2023-01-05T11:50:30;99770.16;;;11.89;63.43
43488;BME280;29078;41.932;25.554;2023-01-05T11:53:01;99720.28;;;11.63;63.02
43488;BME280;29078;41.932;25.554;2023-01-05T11:55:36;99760.50;;;11.96;63.12
43488;BME280;29078;41.932;25.554;2023-01-05T12:03:59;99748.28;;;11.95;62.85
43488;BME280;29078;41.932;25.554;2023-01-05T12:17:46;99715.72;;;11.72;63.35
43488;BME280;29078;41.932;25.554;2023-01-05T12:32:16;99703.97;;;11.74;63.25
43488;BME280;29078;41.932;25.554;2023-01-05T12:40:42;99623.59;;;11.31;63.72
43488;BME280;29078;41.932;25.554;2023-01-05T12:48:53;99690.09;;;11.72;63.41
43488;BME280;29078;41.932;25.554;2023-01-05T12:51:35;99692.91;;;11.71;63.15
43488;BME280;29078;41.932;25.554;2023-01-05T12:54:09;99650.41;;;11.43;63.18
43488;BME280;29078;41.932;25.554;2023-01-05T12:56:43;99690.91;;;11.73;63.35
43488;BME280;29078;41.932;25.554;2023-01-05T12:59:23;99610.78;;;11.05;63.21
43488;BME280;29078;41.932;25.554;2023-01-05T13:01:58;99691.28;;;11.70;63.48
43488;BME280;29078;41.932;25.554;2023-01-05T13:04:43;99675.69;;;11.60;63.40
43488;BME280;29078;41.932;25.554;2023-01-05T13:07:16;99600.31;;;11.12;63.42
43488;BME280;29078;41.932;25.554;2023-01-05T13:09:47;99651.59;;;11.40;63.19
43488;BME280;29078;41.932;25.554;2023-01-05T13:12:17;99546.31;;;10.77;63.61
43488;BME280;29078;41.932;25.554;2023-01-05T13:14:48;99664.38;;;11.52;63.33
43488;BME280;29078;41.932;25.554;2023-01-05T13:17:24;99693.03;;;11.77;62.87
43488;BME280;29078;41.932;25.554;2023-01-05T13:20:04;99693.88;;;11.78;63.49
43488;BME280;29078;41.932;25.554;2023-01-05T13:22:37;99630.97;;;11.36;62.94
43488;BME280;29078;41.932;25.554;2023-01-05T13:25:22;99690.84;;;11.81;63.02
43488;BME280;29078;41.932;25.554;2023-01-05T13:27:49;99681.16;;;11.73;63.04
43488;BME280;29078;41.932;25.554;2023-01-05T13:30:28;99614.22;;;11.29;63.04
43488;BME280;29078;41.932;25.554;2023-01-05T13:47:42;99602.84;;;11.05;63.10
43488;BME280;29078;41.932;25.554;2023-01-05T13:53:18;99688.53;;;11.49;63.31
43488;BME280;29078;41.932;25.554;2023-01-05T13:55:52;99709.97;;;11.54;63.67
43488;BME280;29078;41.932;25.554;2023-01-05T13:58:59;99687.31;;;11.36;63.51
43488;BME280;29078;41.932;25.554;2023-01-05T14:01:42;99714.59;;;11.52;63.01
43488;BME280;29078;41.932;25.554;2023-01-05T14:04:28;99650.41;;;11.05;63.98
43488;BME280;29078;41.932;25.554;2023-01-05T14:06:58;99552.56;;;10.38;63.49
43488;BME280;29078;41.932;25.554;2023-01-05T14:14:58;99696.34;;;11.42;64.12
43488;BME280;29078;41.932;25.554;2023-01-05T14:25:58;99662.25;;;11.47;64.33
43488;BME280;29078;41.932;25.554;2023-01-05T14:33:47;99659.69;;;11.39;64.18
43488;BME280;29078;41.932;25.554;2023-01-05T14:36:40;99659.59;;;11.32;64.67
43488;BME280;29078;41.932;25.554;2023-01-05T14:47:10;99670.31;;;11.16;64.68
43488;BME280;29078;41.932;25.554;2023-01-05T14:49:39;99672.38;;;11.06;64.93
43488;BME280;29078;41.932;25.554;2023-01-05T14:52:13;99677.94;;;11.11;65.33
43488;BME280;29078;41.932;25.554;2023-01-05T14:59:50;99615.16;;;10.75;64.95
43488;BME280;29078;41.932;25.554;2023-01-05T15:02:23;99620.56;;;10.82;64.47
43488;BME280;29078;41.932;25.554;2023-01-05T15:04:53;99653.47;;;10.94;65.46
43488;BME280;29078;41.932;25.554;2023-01-05T15:10:54;99621.69;;;10.65;65.88
43488;BME280;29078;41.932;25.554;2023-01-05T15:16:29;99634.69;;;10.66;65.96
43488;BME280;29078;41.932;25.554;2023-01-05T15:27:11;99628.53;;;10.51;66.71
43488;BME280;29078;41.932;25.554;2023-01-05T15:30:13;99476.75;;;9.47;66.45
43488;BME280;29078;41.932;25.554;2023-01-05T15:32:39;99560.94;;;9.88;67.06